createdAt,value
2024-01-09T00:00:19.405Z,6.99
2024-01-09T00:02:47.559Z,6.96
2024-01-09T00:05:17.262Z,6.93
2024-01-09T00:07:45.310Z,7.00
2024-01-09T00:10:13.455Z,6.96
2024-01-09T00:12:41.574Z,6.88
2024-01-09T00:15:11.247Z,6.79
2024-01-09T00:17:39.413Z,6.79
2024-01-09T00:20:08.718Z,6.83
2024-01-09T00:22:38.177Z,6.88
2024-01-09T00:25:08.041Z,6.88
2024-01-09T00:27:36.250Z,6.77
2024-01-09T00:30:04.484Z,6.69
2024-01-09T00:32:32.756Z,6.84
2024-01-09T00:35:00.908Z,6.82
2024-01-09T00:37:28.903Z,6.48
2024-01-09T00:39:58.454Z,6.78
2024-01-09T00:42:26.575Z,6.81
2024-01-09T00:44:54.712Z,6.62
2024-01-09T00:47:22.952Z,6.49
2024-01-09T00:49:51.390Z,6.87
2024-01-09T00:52:19.508Z,6.73
2024-01-09T00:54:47.673Z,6.90
2024-01-09T00:57:19.303Z,6.76
2024-01-09T00:59:48.072Z,6.77
2024-01-09T01:02:16.254Z,6.90
2024-01-09T01:04:44.359Z,6.76
2024-01-09T01:07:12.757Z,6.91
2024-01-09T01:09:40.839Z,6.91
2024-01-09T01:12:09.074Z,6.85
2024-01-09T01:14:38.728Z,6.92
2024-01-09T01:17:07.317Z,6.97
2024-01-09T01:19:35.440Z,6.93
2024-01-09T01:22:03.612Z,6.86
2024-01-09T01:24:31.716Z,6.79
2024-01-09T01:26:59.873Z,7.03
2024-01-09T01:29:29.313Z,7.06
2024-01-09T01:31:58.854Z,7.08
2024-01-09T01:34:26.983Z,6.97
2024-01-09T01:36:55.449Z,7.04
2024-01-09T01:39:23.630Z,7.14
2024-01-09T01:41:51.713Z,6.90
2024-01-09T01:44:19.838Z,7.14
2024-01-09T01:46:48.311Z,7.08
2024-01-09T01:49:19.967Z,7.14
2024-01-09T01:51:49.002Z,6.98
2024-01-09T01:54:17.019Z,7.12
2024-01-09T01:56:45.896Z,7.12
2024-01-09T01:59:16.364Z,7.07
2024-01-09T02:01:44.862Z,7.04
2024-01-09T02:04:13.026Z,6.91
2024-01-09T02:06:42.568Z,6.76
2024-01-09T02:09:10.662Z,6.73
2024-01-09T02:11:38.892Z,6.65
2024-01-09T02:14:07.067Z,6.55
2024-01-09T02:16:35.177Z,6.45
2024-01-09T02:19:03.262Z,6.43
2024-01-09T02:21:31.471Z,6.38
2024-01-09T02:24:00.990Z,6.23
2024-01-09T02:26:46.867Z,6.28
2024-01-09T02:29:24.122Z,6.22
2024-01-09T02:31:54.075Z,6.05
2024-01-09T02:34:22.466Z,6.11
2024-01-09T02:36:50.733Z,6.03
2024-01-09T02:39:18.833Z,6.08
2024-01-09T02:41:48.124Z,5.95
2024-01-09T02:44:16.278Z,6.03
2024-01-09T02:46:44.353Z,5.96
2024-01-09T02:49:14.841Z,6.00
2024-01-09T02:51:43.518Z,5.97
2024-01-09T02:54:11.738Z,5.97
2024-01-09T02:56:39.935Z,5.93
2024-01-09T02:59:08.066Z,5.87
2024-01-09T03:01:36.164Z,5.93
2024-01-09T03:04:04.232Z,5.84
2024-01-09T03:06:33.820Z,5.91
2024-01-09T03:09:01.983Z,5.74
2024-01-09T03:11:30.016Z,5.73
2024-01-09T03:13:58.033Z,5.90
2024-01-09T03:16:26.159Z,5.90
2024-01-09T03:18:54.283Z,5.83
2024-01-09T03:21:22.782Z,5.89
2024-01-09T03:23:52.238Z,5.64
2024-01-09T03:26:20.876Z,5.83
2024-01-09T03:28:49.494Z,5.84
2024-01-09T03:31:21.456Z,5.78
2024-01-09T03:33:49.654Z,5.85
2024-01-09T03:36:17.795Z,5.87
2024-01-09T03:38:46.437Z,5.85
2024-01-09T03:41:15.994Z,5.82
2024-01-09T03:43:44.047Z,5.83
2024-01-09T03:46:12.156Z,5.82
2024-01-09T03:48:40.325Z,5.55
2024-01-09T03:51:08.487Z,5.81
2024-01-09T03:53:36.888Z,5.80
2024-01-09T03:56:05.246Z,5.72
2024-01-09T03:58:34.734Z,5.78
2024-01-09T04:01:03.952Z,5.82
2024-01-09T04:03:32.135Z,5.81
2024-01-09T04:06:00.244Z,5.75
2024-01-09T04:08:28.453Z,5.81
2024-01-09T04:10:56.589Z,5.53
2024-01-09T04:13:24.705Z,5.66
2024-01-09T04:15:54.224Z,5.62
2024-01-09T04:18:22.593Z,5.64
2024-01-09T04:20:50.854Z,5.82
2024-01-09T04:23:19.079Z,5.75
2024-01-09T04:25:47.133Z,5.79
2024-01-09T04:28:16.830Z,5.76
2024-01-09T04:30:45.265Z,5.80
2024-01-09T04:33:14.951Z,5.40
2024-01-09T04:35:43.231Z,5.80
2024-01-09T04:38:11.436Z,5.78
2024-01-09T04:40:39.452Z,5.74
2024-01-09T04:43:07.559Z,5.70
2024-01-09T04:45:35.963Z,5.69
2024-01-09T04:48:04.278Z,5.68
2024-01-09T04:50:33.940Z,5.68
2024-01-09T04:53:02.073Z,5.72
2024-01-09T04:55:30.099Z,5.64
2024-01-09T04:57:58.157Z,5.62
2024-01-09T05:00:26.278Z,5.75
2024-01-09T05:02:55.336Z,5.68
2024-01-09T05:05:23.832Z,5.69
2024-01-09T05:07:53.399Z,5.73
2024-01-09T05:10:21.477Z,5.59
2024-01-09T05:12:49.496Z,5.69
2024-01-09T05:15:17.803Z,5.65
2024-01-09T05:17:46.068Z,5.65
2024-01-09T05:20:14.295Z,5.62
2024-01-09T05:22:42.380Z,5.58
2024-01-09T05:25:12.247Z,5.56
2024-01-09T05:27:40.241Z,5.25
2024-01-09T05:30:10.164Z,5.50
2024-01-09T05:32:38.571Z,5.43
2024-01-09T05:35:09.369Z,5.46
2024-01-09T05:37:37.629Z,5.40
2024-01-09T05:40:07.340Z,5.35
2024-01-09T05:42:37.097Z,5.41
2024-01-09T05:45:06.077Z,5.48
2024-01-09T05:47:34.291Z,5.49
2024-01-09T05:50:02.836Z,5.30
2024-01-09T05:52:30.958Z,5.50
2024-01-09T05:54:59.077Z,5.47
2024-01-09T05:57:27.164Z,5.39
2024-01-09T05:59:56.679Z,5.53
2024-01-09T06:02:24.880Z,5.54
2024-01-09T06:04:53.013Z,5.58
2024-01-09T06:07:22.039Z,5.53
2024-01-09T06:09:50.240Z,5.67
2024-01-09T06:12:18.352Z,5.71
2024-01-09T06:14:46.598Z,5.75
2024-01-09T06:17:16.169Z,5.66
2024-01-09T06:19:44.317Z,5.75
2024-01-09T06:22:13.435Z,5.87
2024-01-09T06:24:41.475Z,5.93
2024-01-09T06:27:09.533Z,5.81
2024-01-09T06:29:37.743Z,6.04
2024-01-09T06:32:06.469Z,5.95
2024-01-09T06:34:37.912Z,6.03
2024-01-09T06:37:06.547Z,6.12
2024-01-09T06:39:34.648Z,6.07
2024-01-09T06:42:03.384Z,6.17
2024-01-09T06:44:31.545Z,6.22
2024-01-09T06:46:59.873Z,6.26
2024-01-09T06:49:27.976Z,6.33
2024-01-09T06:51:57.838Z,6.39
2024-01-09T06:54:26.143Z,6.44
2024-01-09T06:56:54.283Z,6.52
2024-01-09T06:59:22.509Z,6.58
2024-01-09T07:01:50.582Z,6.62
2024-01-09T07:04:18.829Z,6.65
2024-01-09T07:06:47.176Z,6.65
2024-01-09T07:09:16.776Z,6.56
2024-01-09T07:11:44.932Z,6.46
2024-01-09T07:14:13.342Z,6.53
2024-01-09T07:16:41.523Z,6.56
2024-01-09T07:19:10.136Z,6.66
2024-01-09T07:21:38.491Z,6.68
2024-01-09T07:24:07.346Z,6.51
2024-01-09T07:26:42.683Z,6.61
2024-01-09T07:29:11.971Z,6.62
2024-01-09T07:31:40.136Z,6.58
2024-01-09T07:34:08.316Z,6.55
2024-01-09T07:36:36.526Z,6.32
2024-01-09T07:39:06.869Z,6.49
2024-01-09T07:41:36.094Z,6.43
2024-01-09T07:44:05.731Z,6.38
2024-01-09T07:46:34.123Z,6.34
2024-01-09T07:49:02.323Z,6.29
2024-01-09T07:51:30.457Z,6.24
2024-01-09T07:53:58.705Z,6.21
2024-01-09T07:56:26.896Z,6.16
2024-01-09T07:58:55.001Z,6.00
2024-01-09T08:01:25.677Z,6.04
2024-01-09T08:03:53.919Z,5.97
2024-01-09T08:06:22.766Z,5.95
2024-01-09T08:08:51.280Z,6.04
2024-01-09T08:11:19.514Z,6.04
2024-01-09T08:13:48.731Z,6.08
2024-01-09T08:16:17.257Z,6.09
2024-01-09T08:18:46.868Z,6.15
2024-01-09T08:21:15.514Z,6.25
2024-01-09T08:23:43.992Z,6.27
2024-01-09T08:26:14.342Z,6.27
2024-01-09T08:28:42.612Z,6.12
2024-01-09T08:31:10.901Z,6.27
2024-01-09T08:33:39.690Z,6.49
2024-01-09T08:36:09.890Z,6.47
2024-01-09T08:38:37.995Z,6.47
2024-01-09T08:41:07.161Z,6.40
2024-01-09T08:43:35.325Z,6.10
2024-01-09T08:46:03.676Z,6.47
2024-01-09T08:48:32.143Z,6.53
2024-01-09T08:51:00.700Z,6.56
2024-01-09T08:53:31.061Z,6.54
2024-01-09T08:55:59.296Z,6.59
2024-01-09T08:58:27.357Z,6.52
2024-01-09T09:00:55.532Z,6.57
2024-01-09T09:03:24.031Z,6.53
2024-01-09T09:05:52.467Z,6.51
2024-01-09T09:08:22.470Z,6.16
2024-01-09T09:10:52.131Z,6.52
2024-01-09T09:13:20.614Z,6.41
2024-01-09T09:15:48.646Z,6.53
2024-01-09T09:18:16.968Z,6.64
2024-01-09T09:20:45.333Z,6.70
2024-01-09T09:23:13.490Z,6.75
2024-01-09T09:25:42.225Z,6.64
2024-01-09T09:28:11.770Z,6.86
2024-01-09T09:30:40.658Z,6.98
2024-01-09T09:33:09.787Z,6.95
2024-01-09T09:35:38.327Z,7.13
2024-01-09T09:38:06.660Z,7.06
2024-01-09T09:40:34.730Z,7.14
2024-01-09T09:43:04.368Z,7.24
2024-01-09T09:45:33.893Z,7.28
2024-01-09T09:48:02.144Z,7.19
2024-01-09T09:50:30.256Z,7.28
2024-01-09T09:52:58.087Z,7.28
2024-01-09T09:55:26.209Z,7.40
2024-01-09T09:57:54.235Z,7.49
2024-01-09T10:00:22.339Z,7.61
2024-01-09T10:02:51.884Z,7.51
2024-01-09T10:05:20.645Z,7.34
2024-01-09T10:07:51.664Z,7.98
2024-01-09T10:10:20.392Z,7.86
2024-01-09T10:12:49.401Z,8.02
2024-01-09T10:15:18.799Z,8.17
2024-01-09T10:17:47.531Z,8.15
2024-01-09T10:20:17.493Z,8.17
2024-01-09T10:22:45.634Z,8.32
2024-01-09T10:25:14.562Z,8.16
2024-01-09T10:27:43.170Z,8.40
2024-01-09T10:30:12.381Z,8.52
2024-01-09T10:32:45.091Z,8.53
2024-01-09T10:35:14.481Z,8.58
2024-01-09T10:37:45.364Z,8.35
2024-01-09T10:40:14.554Z,8.56
2024-01-09T10:42:49.030Z,8.52
2024-01-09T10:45:17.888Z,8.41
2024-01-09T10:47:46.960Z,8.34
2024-01-09T10:50:15.419Z,8.27
2024-01-09T10:52:44.999Z,8.16
2024-01-09T10:55:13.296Z,8.28
2024-01-09T10:57:41.452Z,8.28
2024-01-09T11:00:11.764Z,8.29
2024-01-09T11:02:40.075Z,8.26
2024-01-09T11:05:09.467Z,8.19
2024-01-09T11:07:38.210Z,8.20
2024-01-09T11:10:11.650Z,8.08
2024-01-09T11:12:43.951Z,8.01
2024-01-09T11:15:14.548Z,7.99
2024-01-09T11:17:43.348Z,7.97
2024-01-09T11:20:12.156Z,7.88
2024-01-09T11:22:40.887Z,7.85
2024-01-09T11:25:17.047Z,7.81
2024-01-09T11:27:49.130Z,7.72
2024-01-09T11:30:18.114Z,7.74
2024-01-09T11:32:46.369Z,7.76
2024-01-09T11:35:15.816Z,7.74
2024-01-09T11:37:45.444Z,7.43
2024-01-09T11:40:15.681Z,7.54
2024-01-09T11:42:45.839Z,7.76
2024-01-09T11:45:14.217Z,7.78
2024-01-09T11:47:42.669Z,7.83
2024-01-09T11:50:11.910Z,7.83
2024-01-09T11:52:40.935Z,7.91
2024-01-09T11:55:09.919Z,7.79
2024-01-09T11:57:40.924Z,8.08
2024-01-09T12:00:10.093Z,7.99
2024-01-09T12:02:38.781Z,7.94
2024-01-09T12:05:07.189Z,8.00
2024-01-09T12:07:35.923Z,7.91
2024-01-09T12:10:09.823Z,7.99
2024-01-09T12:12:46.578Z,7.91
2024-01-09T12:15:19.867Z,7.99
2024-01-09T12:17:54.059Z,7.97
2024-01-09T12:20:22.516Z,8.09
2024-01-09T12:22:50.654Z,8.15
2024-01-09T12:25:19.458Z,8.10
2024-01-09T12:27:49.090Z,7.83
2024-01-09T12:30:17.936Z,8.15
2024-01-09T12:32:46.231Z,8.19
2024-01-09T12:35:14.361Z,8.21
2024-01-09T12:37:45.194Z,8.02
2024-01-09T12:40:17.759Z,8.35
2024-01-09T12:42:46.155Z,8.44
2024-01-09T12:45:16.244Z,8.47
2024-01-09T12:47:44.787Z,8.62
2024-01-09T12:50:13.451Z,8.70
2024-01-09T12:52:41.619Z,8.73
2024-01-09T12:55:12.466Z,8.87
2024-01-09T12:57:40.657Z,9.13
2024-01-09T13:00:11.908Z,9.42
2024-01-09T13:02:41.958Z,9.54
2024-01-09T13:05:11.095Z,9.19
2024-01-09T13:07:39.305Z,9.15
2024-01-09T13:10:09.228Z,9.23
2024-01-09T13:12:37.680Z,9.70
2024-01-09T13:15:06.418Z,10.15
2024-01-09T13:17:34.889Z,10.61
2024-01-09T13:20:08.378Z,10.55
2024-01-09T13:23:46.771Z,10.42
2024-01-09T13:25:25.015Z,10.24
2024-01-09T13:27:53.274Z,10.08
2024-01-09T13:30:47.424Z,10.01
2024-01-09T13:33:12.668Z,9.91
2024-01-09T13:35:42.136Z,9.86
2024-01-09T13:38:10.458Z,9.82
2024-01-09T13:40:38.823Z,9.44
2024-01-09T13:43:07.568Z,9.65
2024-01-09T13:45:35.951Z,9.54
2024-01-09T13:48:04.210Z,9.37
2024-01-09T13:51:48.229Z,9.34
2024-01-09T13:53:24.337Z,9.22
2024-01-09T13:55:54.415Z,9.14
2024-01-09T13:58:22.518Z,8.90
2024-01-09T14:00:50.706Z,9.00
2024-01-09T14:03:19.530Z,8.80
2024-01-09T14:05:47.874Z,8.91
2024-01-09T14:08:16.270Z,8.88
2024-01-09T14:10:47.772Z,8.72
2024-01-09T14:13:18.326Z,8.54
2024-01-09T14:15:46.513Z,8.79
2024-01-09T14:18:14.640Z,8.69
2024-01-09T14:20:42.713Z,8.69
2024-01-09T14:23:10.947Z,8.51
2024-01-09T14:25:41.776Z,8.59
2024-01-09T14:28:11.929Z,8.11
2024-01-09T14:30:40.087Z,8.54
2024-01-09T14:33:08.236Z,8.54
2024-01-09T14:35:38.353Z,8.41
2024-01-09T14:38:06.648Z,8.51
2024-01-09T14:40:35.508Z,8.49
2024-01-09T14:43:03.660Z,8.48
2024-01-09T14:45:33.325Z,8.41
2024-01-09T14:48:01.885Z,8.47
2024-01-09T14:50:30.111Z,8.48
2024-01-09T14:52:58.176Z,8.44
2024-01-09T14:55:26.461Z,8.51
2024-01-09T14:57:54.596Z,8.36
2024-01-09T15:00:22.972Z,8.51
2024-01-09T15:02:55.698Z,8.52
2024-01-09T15:05:24.093Z,8.54
2024-01-09T15:07:53.972Z,8.59
2024-01-09T15:10:22.046Z,8.56
2024-01-09T15:12:51.274Z,8.42
2024-01-09T15:15:19.908Z,8.53
2024-01-09T15:17:49.226Z,7.95
2024-01-09T15:20:19.283Z,8.45
2024-01-09T15:22:47.457Z,8.42
2024-01-09T15:25:15.803Z,8.47
2024-01-09T15:27:44.150Z,8.43
2024-01-09T15:30:13.239Z,8.32
2024-01-09T15:32:41.699Z,8.31
2024-01-09T15:35:12.935Z,8.27
2024-01-09T15:37:43.338Z,8.18
2024-01-09T15:40:15.188Z,8.10
2024-01-09T15:42:43.859Z,7.96
2024-01-09T15:45:13.537Z,7.86
2024-01-09T15:47:42.755Z,7.85
2024-01-09T15:50:12.066Z,7.86
2024-01-09T15:52:40.326Z,7.81
2024-01-09T15:55:10.327Z,7.67
2024-01-09T15:57:38.424Z,7.72
2024-01-09T16:00:08.384Z,7.56
2024-01-09T16:02:36.450Z,7.66
2024-01-09T16:05:06.788Z,7.66
2024-01-09T16:07:35.586Z,7.64
2024-01-09T16:10:05.132Z,7.59
2024-01-09T16:12:34.867Z,7.47
2024-01-09T16:15:02.966Z,7.25
2024-01-09T16:17:31.398Z,7.52
2024-01-09T16:20:00.351Z,7.47
2024-01-09T16:22:28.739Z,7.46
2024-01-09T16:24:57.746Z,7.31
2024-01-09T16:27:26.162Z,7.40
2024-01-09T16:29:56.301Z,7.42
2024-01-09T16:32:24.694Z,7.37
2024-01-09T16:34:53.507Z,7.34
2024-01-09T16:37:21.667Z,7.22
2024-01-09T16:39:49.762Z,7.32
2024-01-09T16:42:17.794Z,7.29
2024-01-09T16:44:46.037Z,7.30
2024-01-09T16:47:16.808Z,7.15
2024-01-09T16:49:45.274Z,7.29
2024-01-09T16:52:13.360Z,7.25
2024-01-09T16:54:41.478Z,7.24
2024-01-09T16:57:10.758Z,7.17
2024-01-09T16:59:39.780Z,7.15
2024-01-09T17:02:07.967Z,7.14
2024-01-09T17:04:37.604Z,7.13
2024-01-09T17:07:06.127Z,7.02
2024-01-09T17:09:34.253Z,7.12
2024-01-09T17:12:02.332Z,7.10
2024-01-09T17:14:34.165Z,6.96
2024-01-09T17:17:02.345Z,7.08
2024-01-09T17:19:30.467Z,7.09
2024-01-09T17:22:00.085Z,7.06
2024-01-09T17:24:29.946Z,7.10
2024-01-09T17:26:59.633Z,7.10
2024-01-09T17:29:27.776Z,7.01
2024-01-09T17:31:55.960Z,7.04
2024-01-09T17:34:24.085Z,7.05
2024-01-09T17:36:53.878Z,6.89
2024-01-09T17:39:23.628Z,7.01
2024-01-09T17:41:51.697Z,7.04
2024-01-09T17:44:19.948Z,6.94
2024-01-09T17:46:48.165Z,6.98
2024-01-09T17:49:16.269Z,7.08
2024-01-09T17:51:44.442Z,7.11
2024-01-09T17:54:12.659Z,7.12
2024-01-09T17:56:42.083Z,7.12
2024-01-09T17:59:10.329Z,7.13
2024-01-09T18:01:45.453Z,7.14
2024-01-09T18:04:17.255Z,7.19
2024-01-09T18:06:46.272Z,7.16
2024-01-09T18:09:22.534Z,7.18
2024-01-09T18:11:52.939Z,7.15
2024-01-09T18:14:21.062Z,7.12
2024-01-09T18:16:49.140Z,7.10
2024-01-09T18:19:18.229Z,7.04
2024-01-09T18:21:46.400Z,6.97
2024-01-09T18:24:14.519Z,6.98
2024-01-09T18:26:53.028Z,7.01
2024-01-09T18:29:24.408Z,6.98
2024-01-09T18:31:54.590Z,6.94
2024-01-09T18:34:23.430Z,6.94
2024-01-09T18:36:51.772Z,6.95
2024-01-09T18:39:20.416Z,6.88
2024-01-09T18:41:48.556Z,6.92
2024-01-09T18:44:17.394Z,6.91
2024-01-09T18:46:47.163Z,6.92
2024-01-09T18:49:15.315Z,6.86
2024-01-09T18:51:44.504Z,6.88
2024-01-09T18:54:12.953Z,6.80
2024-01-09T18:56:41.972Z,6.80
2024-01-09T18:59:11.676Z,6.87
2024-01-09T19:01:40.727Z,6.89
2024-01-09T19:04:11.124Z,6.88
2024-01-09T19:06:39.369Z,6.69
2024-01-09T19:09:13.006Z,6.81
2024-01-09T19:11:41.299Z,6.60
2024-01-09T19:14:11.282Z,6.61
2024-01-09T19:16:44.880Z,6.81
2024-01-09T19:19:16.739Z,6.78
2024-01-09T19:21:45.650Z,6.71
2024-01-09T19:24:13.787Z,6.76
2024-01-09T19:26:44.948Z,6.58
2024-01-09T19:29:13.751Z,6.74
2024-01-09T19:31:43.311Z,6.70
2024-01-09T19:34:11.911Z,6.60
2024-01-09T19:36:45.488Z,6.69
2024-01-09T19:39:13.573Z,6.53
2024-01-09T19:41:41.791Z,6.67
2024-01-09T19:44:10.131Z,6.67
2024-01-09T19:46:41.213Z,6.67
2024-01-09T19:49:09.387Z,6.64
2024-01-09T19:51:37.510Z,6.66
2024-01-09T19:54:10.809Z,6.67
2024-01-09T19:56:40.979Z,6.65
2024-01-09T19:59:09.243Z,6.54
2024-01-09T20:01:37.483Z,6.50
2024-01-09T20:04:05.950Z,6.60
2024-01-09T20:06:35.324Z,6.60
2024-01-09T20:09:05.064Z,6.58
2024-01-09T20:11:34.900Z,6.60
2024-01-09T20:14:05.829Z,6.50
2024-01-09T20:16:34.013Z,6.33
2024-01-09T20:19:02.211Z,6.57
2024-01-09T20:21:30.501Z,6.51
2024-01-09T20:23:58.580Z,6.55
2024-01-09T20:26:26.933Z,6.43
2024-01-09T20:28:56.785Z,6.48
2024-01-09T20:31:26.008Z,6.43
2024-01-09T20:33:54.144Z,6.41
2024-01-09T20:36:23.073Z,6.35
2024-01-09T20:38:52.089Z,6.45
2024-01-09T20:41:26.322Z,6.44
2024-01-09T20:43:54.740Z,6.45
2024-01-09T20:46:24.684Z,6.34
2024-01-09T20:48:52.874Z,6.50
2024-01-09T20:51:21.048Z,6.47
2024-01-09T20:53:49.412Z,6.50
2024-01-09T20:56:17.493Z,6.45
2024-01-09T20:58:45.638Z,6.39
2024-01-09T21:01:13.891Z,6.30
2024-01-09T21:03:43.574Z,6.45
2024-01-09T21:06:11.818Z,6.34
2024-01-09T21:08:41.064Z,6.38
2024-01-09T21:11:09.322Z,6.31
2024-01-09T21:13:37.394Z,6.31
2024-01-09T21:16:05.902Z,6.30
2024-01-09T21:18:34.251Z,6.31
2024-01-09T21:21:03.945Z,6.31
2024-01-09T21:23:38.278Z,6.34
2024-01-09T21:26:11.235Z,6.35
2024-01-09T21:28:39.421Z,6.33
2024-01-09T21:31:07.820Z,6.28
2024-01-09T21:33:36.355Z,6.26
2024-01-09T21:36:06.474Z,6.26
2024-01-09T21:38:34.572Z,6.24
2024-01-09T21:41:03.300Z,6.35
2024-01-09T21:43:31.482Z,6.37
2024-01-09T21:45:59.612Z,6.40
2024-01-09T21:48:27.988Z,6.45
2024-01-09T21:50:57.118Z,6.30
2024-01-09T21:53:26.666Z,6.48
2024-01-09T21:55:54.851Z,6.49
2024-01-09T21:58:23.119Z,6.34
2024-01-09T22:00:51.223Z,6.51
2024-01-09T22:03:19.967Z,6.55
2024-01-09T22:05:48.192Z,6.59
2024-01-09T22:08:16.384Z,6.64
2024-01-09T22:10:46.505Z,6.64
2024-01-09T22:13:14.705Z,6.68
2024-01-09T22:15:47.745Z,6.69
2024-01-09T22:18:16.338Z,6.69
2024-01-09T22:20:44.733Z,6.67
2024-01-09T22:23:13.029Z,6.64
2024-01-09T22:25:41.173Z,6.69
2024-01-09T22:28:12.489Z,6.66
2024-01-09T22:30:41.839Z,6.60
2024-01-09T22:33:11.038Z,6.60
2024-01-09T22:35:42.397Z,6.58
2024-01-09T22:38:10.584Z,6.39
2024-01-09T22:40:38.770Z,6.50
2024-01-09T22:43:09.032Z,6.49
2024-01-09T22:45:38.581Z,6.42
2024-01-09T22:48:07.758Z,6.43
2024-01-09T22:50:36.637Z,6.42
2024-01-09T22:53:05.082Z,6.14
2024-01-09T22:55:33.286Z,6.14
2024-01-09T22:58:02.240Z,6.27
2024-01-09T23:00:32.036Z,6.28
2024-01-09T23:03:01.586Z,6.07
2024-01-09T23:05:29.962Z,6.37
2024-01-09T23:07:58.296Z,6.33
2024-01-09T23:10:26.409Z,6.34
2024-01-09T23:12:54.442Z,6.32
2024-01-09T23:15:22.702Z,6.31
2024-01-09T23:17:50.948Z,6.21
2024-01-09T23:20:20.553Z,6.28
2024-01-09T23:22:48.701Z,6.30
2024-01-09T23:25:18.060Z,6.27
2024-01-09T23:27:46.217Z,6.30
2024-01-09T23:30:14.871Z,6.34
2024-01-09T23:32:43.104Z,6.35
2024-01-09T23:35:11.916Z,6.24
2024-01-09T23:37:41.397Z,6.24
2024-01-09T23:40:10.330Z,6.38
2024-01-09T23:42:38.381Z,6.40
2024-01-09T23:45:07.044Z,6.37
2024-01-09T23:47:35.111Z,6.44
2024-01-09T23:50:03.388Z,6.47
2024-01-09T23:52:31.673Z,6.55
2024-01-09T23:55:01.229Z,6.59
2024-01-09T23:57:29.308Z,6.39
2024-01-09T23:59:57.489Z,6.64
